Pegasus Prime — DSQG5 — position and weather

sailwx.info

Track history (hours):
 
Tides and Currents Weather Stations Pressure Air Temp Water Temp Dewpoint Dewpoint Depression Visibility Wind Speed Wind Dir Waves Ship Positions

Pegasus Prime

Last reported at 2017-Sep-22 01:57 UTC. Time now 2017-Sep-22 08:14 UTC.
Position N 34°38' E 135°26'.

Length 127 m; draft 8 m.

Type: Cargo ship. MMSI: 441568000.

Date/timePositionNaut miles runAvg speedWind from/ knotsBaromVisibWave heightAir tempDewpointWater temp
2017-Sep-22 01:57N 34°38' E 135°26'0 0.0
2017-Sep-22 01:27N 34°38' E 135°26'0 0.0
2017-Sep-22 00:21N 34°38' E 135°26'0 0.0
2017-Sep-21 23:51N 34°38' E 135°26'0 0.0
2017-Sep-21 23:21N 34°38' E 135°26'0 0.0
2017-Sep-21 22:58N 34°38' E 135°26'1 1.4
2017-Sep-21 22:30N 34°39' E 135°26'5 9.9
2017-Sep-21 22:00N 34°36' E 135°20'612.1
2017-Sep-21 21:29N 34°40' E 135°14'0 0.4
2017-Sep-21 20:45N 34°40' E 135°14'0 0.0
2017-Sep-21 20:27N 34°40' E 135°14'0 0.0
2017-Sep-21 19:57N 34°40' E 135°14'0 0.0
2017-Sep-21 19:27N 34°40' E 135°14'0 0.0
2017-Sep-21 18:51N 34°40' E 135°14'0 0.0
2017-Sep-21 18:27N 34°40' E 135°14'0 0.0
2017-Sep-21 17:51N 34°40' E 135°14'0 0.0
2017-Sep-21 17:27N 34°40' E 135°14'0 0.0
2017-Sep-21 16:57N 34°40' E 135°14'0 0.0
2017-Sep-21 16:27N 34°40' E 135°14'0 0.0
2017-Sep-21 15:57N 34°40' E 135°14'0 0.0
2017-Sep-21 15:27N 34°40' E 135°14'0 0.0
2017-Sep-21 14:57N 34°40' E 135°14'0 0.0
2017-Sep-21 14:27N 34°40' E 135°14'0 0.0
2017-Sep-21 13:57N 34°40' E 135°14'0 0.0
2017-Sep-21 13:27N 34°40' E 135°14'0 0.0
2017-Sep-21 12:57N 34°40' E 135°14'0 0.0
2017-Sep-21 12:27N 34°40' E 135°14'0 0.0
2017-Sep-21 11:57N 34°40' E 135°14'0 0.0
2017-Sep-21 11:27N 34°40' E 135°14'0 0.0
2017-Sep-21 10:45N 34°40' E 135°14'0 0.0
2017-Sep-21 10:27N 34°40' E 135°14'0 0.0
2017-Sep-21 09:57N 34°40' E 135°14'0 0.0
2017-Sep-21 09:21N 34°40' E 135°14'0 0.0
2017-Sep-21 08:57N 34°40' E 135°14'0 0.0
2017-Sep-21 08:21N 34°40' E 135°14'0 0.0
2017-Sep-21 08:00N 34°40' E 135°14'1 2.6
2017-Sep-21 07:30N 34°39' E 135°15'1 2.1
2017-Sep-21 06:46N 34°38' E 135°17'0 0.0
2017-Sep-21 06:28N 34°38' E 135°17'0 0.0
2017-Sep-21 05:58N 34°38' E 135°17'0 0.0
2017-Sep-21 05:28N 34°38' E 135°17'0 0.0
2017-Sep-21 04:58N 34°38' E 135°17'0 0.0
2017-Sep-21 04:22N 34°38' E 135°17'0 0.0
2017-Sep-21 03:46N 34°38' E 135°17'0 0.0
2017-Sep-21 03:28N 34°38' E 135°17'0 0.1
2017-Sep-21 02:58N 34°38' E 135°17'0 0.1
2017-Sep-21 02:28N 34°38' E 135°17'0 0.1
2017-Sep-21 01:58N 34°38' E 135°17'0 0.0
2017-Sep-21 01:28N 34°38' E 135°17'0 0.0
2017-Sep-21 00:46N 34°38' E 135°17'0 0.0
2017-Sep-21 00:28N 34°38' E 135°17'0 0.0
2017-Sep-20 23:58N 34°38' E 135°17'0 0.0
2017-Sep-20 23:10N 34°38' E 135°17'0 0.0
2017-Sep-20 22:58N 34°38' E 135°17'0 0.0
2017-Sep-20 22:28N 34°38' E 135°17'0 0.0
2017-Sep-20 21:58N 34°38' E 135°17'0 0.0
2017-Sep-20 21:28N 34°38' E 135°17'0 0.1
2017-Sep-20 21:00N 34°38' E 135°17'1 2.1
2017-Sep-20 20:30N 34°37' E 135°17'612.4
2017-Sep-20 20:00N 34°35' E 135°10'815.6
2017-Sep-20 19:30N 34°37' E 135°01'  
2017-Sep-15 16:58N 34°32' E 134°44'715.0
2017-Sep-15 16:30N 34°35' E 134°52'714.2
2017-Sep-15 16:00N 34°38' E 134°60'612.4
2017-Sep-15 15:30N 34°36' E 135°07'714.4
2017-Sep-15 15:00N 34°38' E 135°15'2 3.7
2017-Sep-15 14:29N 34°40' E 135°14'0 0.0
2017-Sep-15 13:59N 34°40' E 135°14'0 0.0
2017-Sep-15 13:22N 34°40' E 135°14'0 0.0
2017-Sep-15 12:58N 34°40' E 135°14'0 0.0
2017-Sep-15 12:29N 34°40' E 135°14'0 0.0
2017-Sep-15 11:58N 34°40' E 135°14'0 0.0
2017-Sep-15 11:22N 34°40' E 135°14'0 0.0
2017-Sep-15 10:59N 34°40' E 135°14'0 0.0
2017-Sep-15 10:29N 34°40' E 135°14'0 0.0
2017-Sep-15 09:58N 34°40' E 135°14'0 0.0
2017-Sep-15 09:29N 34°40' E 135°14'0 0.0
2017-Sep-15 08:59N 34°40' E 135°14'0 0.0
2017-Sep-15 08:28N 34°40' E 135°14'0 0.0
2017-Sep-15 07:59N 34°40' E 135°14'0 0.0
2017-Sep-15 07:29N 34°40' E 135°14'0 0.0
2017-Sep-15 06:59N 34°40' E 135°14'0 0.0
2017-Sep-15 06:29N 34°40' E 135°14'0 0.6
2017-Sep-15 06:00N 34°40' E 135°14'4 8.0
2017-Sep-15 05:30N 34°39' E 135°19'612.1
2017-Sep-15 05:00N 34°39' E 135°26'0 0.7
2017-Sep-15 04:26N 34°38' E 135°26'0 0.0
2017-Sep-15 03:08N 34°38' E 135°26'0 0.0
2017-Sep-15 02:56N 34°38' E 135°26'0 0.0
2017-Sep-15 01:14N 34°38' E 135°26'0 0.0
2017-Sep-15 00:56N 34°38' E 135°26'0 0.0
2017-Sep-15 00:26N 34°38' E 135°26'0 0.0
2017-Sep-14 23:56N 34°38' E 135°26'0 0.0
2017-Sep-14 22:17N 34°38' E 135°26'0 1.3
2017-Sep-14 22:00N 34°39' E 135°26'5 9.9
2017-Sep-14 21:31N 34°37' E 135°21'713.6
2017-Sep-14 21:01N 34°35' E 135°13'713.9
2017-Sep-14 20:30N 34°35' E 135°04'612.6
2017-Sep-14 20:00N 34°36' E 134°57'  
Track history (hours):
 
Tides and Currents Weather Stations Pressure Air Temp Water Temp Dewpoint Dewpoint Depression Visibility Wind Speed Wind Dir Waves Ship Positions

Pegasus Prime

Last reported at 2017-Sep-22 01:57 UTC. Time now 2017-Sep-22 08:14 UTC.
Position N 34°38' E 135°26'.

Length 127 m; draft 8 m.

Type: Cargo ship. MMSI: 441568000.

Date/timePositionNaut miles runAvg speedWind from/ knotsBaromVisibWave heightAir tempDewpointWater temp
2017-Sep-22 01:57N 34°38' E 135°26'0 0.0
2017-Sep-22 01:27N 34°38' E 135°26'0 0.0
2017-Sep-22 00:21N 34°38' E 135°26'0 0.0
2017-Sep-21 23:51N 34°38' E 135°26'0 0.0
2017-Sep-21 23:21N 34°38' E 135°26'0 0.0
2017-Sep-21 22:58N 34°38' E 135°26'1 1.4
2017-Sep-21 22:30N 34°39' E 135°26'5 9.9
2017-Sep-21 22:00N 34°36' E 135°20'612.1
2017-Sep-21 21:29N 34°40' E 135°14'0 0.4
2017-Sep-21 20:45N 34°40' E 135°14'0 0.0
2017-Sep-21 20:27N 34°40' E 135°14'0 0.0
2017-Sep-21 19:57N 34°40' E 135°14'0 0.0
2017-Sep-21 19:27N 34°40' E 135°14'0 0.0
2017-Sep-21 18:51N 34°40' E 135°14'0 0.0
2017-Sep-21 18:27N 34°40' E 135°14'0 0.0
2017-Sep-21 17:51N 34°40' E 135°14'0 0.0
2017-Sep-21 17:27N 34°40' E 135°14'0 0.0
2017-Sep-21 16:57N 34°40' E 135°14'0 0.0
2017-Sep-21 16:27N 34°40' E 135°14'0 0.0
2017-Sep-21 15:57N 34°40' E 135°14'0 0.0
2017-Sep-21 15:27N 34°40' E 135°14'0 0.0
2017-Sep-21 14:57N 34°40' E 135°14'0 0.0
2017-Sep-21 14:27N 34°40' E 135°14'0 0.0
2017-Sep-21 13:57N 34°40' E 135°14'0 0.0
2017-Sep-21 13:27N 34°40' E 135°14'0 0.0
2017-Sep-21 12:57N 34°40' E 135°14'0 0.0
2017-Sep-21 12:27N 34°40' E 135°14'0 0.0
2017-Sep-21 11:57N 34°40' E 135°14'0 0.0
2017-Sep-21 11:27N 34°40' E 135°14'0 0.0
2017-Sep-21 10:45N 34°40' E 135°14'0 0.0
2017-Sep-21 10:27N 34°40' E 135°14'0 0.0
2017-Sep-21 09:57N 34°40' E 135°14'0 0.0
2017-Sep-21 09:21N 34°40' E 135°14'0 0.0
2017-Sep-21 08:57N 34°40' E 135°14'0 0.0
2017-Sep-21 08:21N 34°40' E 135°14'0 0.0
2017-Sep-21 08:00N 34°40' E 135°14'1 2.6
2017-Sep-21 07:30N 34°39' E 135°15'1 2.1
2017-Sep-21 06:46N 34°38' E 135°17'0 0.0
2017-Sep-21 06:28N 34°38' E 135°17'0 0.0
2017-Sep-21 05:58N 34°38' E 135°17'0 0.0
2017-Sep-21 05:28N 34°38' E 135°17'0 0.0
2017-Sep-21 04:58N 34°38' E 135°17'0 0.0
2017-Sep-21 04:22N 34°38' E 135°17'0 0.0
2017-Sep-21 03:46N 34°38' E 135°17'0 0.0
2017-Sep-21 03:28N 34°38' E 135°17'0 0.1
2017-Sep-21 02:58N 34°38' E 135°17'0 0.1
2017-Sep-21 02:28N 34°38' E 135°17'0 0.1
2017-Sep-21 01:58N 34°38' E 135°17'0 0.0
2017-Sep-21 01:28N 34°38' E 135°17'0 0.0
2017-Sep-21 00:46N 34°38' E 135°17'0 0.0
2017-Sep-21 00:28N 34°38' E 135°17'0 0.0
2017-Sep-20 23:58N 34°38' E 135°17'0 0.0
2017-Sep-20 23:10N 34°38' E 135°17'0 0.0
2017-Sep-20 22:58N 34°38' E 135°17'0 0.0
2017-Sep-20 22:28N 34°38' E 135°17'0 0.0
2017-Sep-20 21:58N 34°38' E 135°17'0 0.0
2017-Sep-20 21:28N 34°38' E 135°17'0 0.1
2017-Sep-20 21:00N 34°38' E 135°17'1 2.1
2017-Sep-20 20:30N 34°37' E 135°17'612.4
2017-Sep-20 20:00N 34°35' E 135°10'815.6
2017-Sep-20 19:30N 34°37' E 135°01'  
2017-Sep-15 16:58N 34°32' E 134°44'715.0
2017-Sep-15 16:30N 34°35' E 134°52'714.2
2017-Sep-15 16:00N 34°38' E 134°60'612.4
2017-Sep-15 15:30N 34°36' E 135°07'714.4
2017-Sep-15 15:00N 34°38' E 135°15'2 3.7
2017-Sep-15 14:29N 34°40' E 135°14'0 0.0
2017-Sep-15 13:59N 34°40' E 135°14'0 0.0
2017-Sep-15 13:22N 34°40' E 135°14'0 0.0
2017-Sep-15 12:58N 34°40' E 135°14'0 0.0
2017-Sep-15 12:29N 34°40' E 135°14'0 0.0
2017-Sep-15 11:58N 34°40' E 135°14'0 0.0
2017-Sep-15 11:22N 34°40' E 135°14'0 0.0
2017-Sep-15 10:59N 34°40' E 135°14'0 0.0
2017-Sep-15 10:29N 34°40' E 135°14'0 0.0
2017-Sep-15 09:58N 34°40' E 135°14'0 0.0
2017-Sep-15 09:29N 34°40' E 135°14'0 0.0
2017-Sep-15 08:59N 34°40' E 135°14'0 0.0
2017-Sep-15 08:28N 34°40' E 135°14'0 0.0
2017-Sep-15 07:59N 34°40' E 135°14'0 0.0
2017-Sep-15 07:29N 34°40' E 135°14'0 0.0
2017-Sep-15 06:59N 34°40' E 135°14'0 0.0
2017-Sep-15 06:29N 34°40' E 135°14'0 0.6
2017-Sep-15 06:00N 34°40' E 135°14'4 8.0
2017-Sep-15 05:30N 34°39' E 135°19'612.1
2017-Sep-15 05:00N 34°39' E 135°26'0 0.7
2017-Sep-15 04:26N 34°38' E 135°26'0 0.0
2017-Sep-15 03:08N 34°38' E 135°26'0 0.0
2017-Sep-15 02:56N 34°38' E 135°26'0 0.0
2017-Sep-15 01:14N 34°38' E 135°26'0 0.0
2017-Sep-15 00:56N 34°38' E 135°26'0 0.0
2017-Sep-15 00:26N 34°38' E 135°26'0 0.0
2017-Sep-14 23:56N 34°38' E 135°26'0 0.0
2017-Sep-14 22:17N 34°38' E 135°26'0 1.3
2017-Sep-14 22:00N 34°39' E 135°26'5 9.9
2017-Sep-14 21:31N 34°37' E 135°21'713.6
2017-Sep-14 21:01N 34°35' E 135°13'713.9
2017-Sep-14 20:30N 34°35' E 135°04'612.6
2017-Sep-14 20:00N 34°36' E 134°57'  

Dump ship's entire track history